This is the latest recevied weather packets stored in our database for station/object PP5MGT-13. If no packets are shown the sender has not sent any weather packets the latest 1 day(s).
| Time | Temp. | Humidity | Pressure | Rain* | Wind** | Luminosity | Snow |
|---|---|---|---|---|---|---|---|
| 1778098196 | 28.33° C | 70% | 1016 hPa | - | - | - | - |
| 1778097295 | 28.89° C | 65% | 1016.1 hPa | - | - | - | - |
| 1778095493 | 28.89° C | 64% | 1016.2 hPa | - | - | - | - |
| 1778091890 | 28.89° C | 57% | 1016.6 hPa | - | - | - | - |
| 1778089187 | 28.33° C | 63% | 1017 hPa | - | - | - | - |
| 1778083781 | 27.22° C | 66% | 1018.5 hPa | - | - | - | - |
| 1778075673 | 22.22° C | 82% | 1021.5 hPa | - | - | - | - |
| 1778070267 | 20.56° C | 89% | 1021.5 hPa | - | - | - | - |
| 1778067565 | 20° C | 93% | 1021 hPa | - | - | - | - |
| 1778066661 | 20° C | 94% | 1021 hPa | - | - | - | - |
| 1778065760 | 19.44° C | 94% | 1021 hPa | - | - | - | - |
| 1778063957 | 18.89° C | 94% | 1020.5 hPa | - | - | - | - |
| 1778061252 | 18.89° C | 97% | 1020 hPa | - | - | - | - |
| 1778052242 | 18.89° C | 99% | 1019.5 hPa | - | - | - | - |
| 1778051341 | 18.89° C | 99% | 1019.4 hPa | - | - | - | - |
| 1778046837 | 18.89° C | 98% | 1019.1 hPa | - | - | - | - |
| 1778045036 | 18.89° C | 98% | 1019.2 hPa | - | - | - | - |
| 1778042333 | 19.44° C | 97% | 1019.5 hPa | - | - | - | - |
| 1778039631 | 20° C | 97% | 1019.6 hPa | - | - | - | - |
| 1778036929 | 20° C | 96% | 1019.8 hPa | - | - | - | - |
| 1778034227 | 20.56° C | 95% | 1019.8 hPa | - | - | - | - |
| 1778033326 | 20.56° C | 95% | 1019.8 hPa | - | - | - | - |
| 1778032425 | 21.11° C | 94% | 1019.8 hPa | - | - | - | - |
| 1778031524 | 21.11° C | 94% | 1019.8 hPa | - | - | - | - |
| 1778029723 | 21.11° C | 93% | 1019.8 hPa | - | - | - | - |
* Rain since midnight (hover to see other rain measurements)
** Current wind speed in m/s (hover to see current wind gust speed)